createdAt,value
2016-11-18T00:00:45.524Z,0
2016-11-18T00:01:45.591Z,0
2016-11-18T00:02:45.522Z,0
2016-11-18T00:03:45.673Z,0
2016-11-18T00:04:45.610Z,0
2016-11-18T00:05:45.964Z,0
2016-11-18T00:06:45.599Z,0
2016-11-18T00:07:45.523Z,0
2016-11-18T00:08:45.516Z,0
2016-11-18T00:09:45.517Z,0
2016-11-18T00:10:45.609Z,0
2016-11-18T00:11:45.803Z,0
2016-11-18T00:12:45.808Z,0
2016-11-18T00:13:46.234Z,0
2016-11-18T00:14:46.509Z,0
2016-11-18T00:15:45.610Z,0
2016-11-18T00:16:46.406Z,0
2016-11-18T00:17:45.588Z,0
2016-11-18T00:18:46.795Z,0
2016-11-18T00:19:45.933Z,0
2016-11-18T00:20:45.757Z,0
2016-11-18T00:21:46.439Z,0
2016-11-18T00:22:45.588Z,0
2016-11-18T00:23:45.718Z,0
2016-11-18T00:24:45.994Z,0
2016-11-18T00:25:45.582Z,0
2016-11-18T00:26:45.946Z,0
2016-11-18T00:27:45.872Z,0
2016-11-18T00:28:45.571Z,0
2016-11-18T00:29:45.531Z,0
2016-11-18T00:30:45.529Z,0
2016-11-18T00:31:45.577Z,0
2016-11-18T00:32:45.548Z,0
2016-11-18T00:33:45.649Z,0
2016-11-18T00:34:45.644Z,0
2016-11-18T00:35:56.029Z,0
2016-11-18T00:36:46.705Z,0
2016-11-18T00:37:55.956Z,0
2016-11-18T00:38:47.730Z,0
2016-11-18T00:39:50.014Z,0
2016-11-18T00:40:45.591Z,0
2016-11-18T00:41:56.248Z,0
2016-11-18T00:42:55.683Z,0
2016-11-18T00:43:55.360Z,0
2016-11-18T00:44:55.434Z,0
2016-11-18T00:45:56.777Z,0
2016-11-18T00:46:54.937Z,0
2016-11-18T00:47:55.308Z,0
2016-11-18T00:48:56.251Z,0
2016-11-18T00:49:56.269Z,0
2016-11-18T00:50:54.940Z,0
2016-11-18T00:51:56.215Z,0
2016-11-18T00:52:55.530Z,0
2016-11-18T00:53:56.203Z,0
2016-11-18T00:54:55.364Z,0
2016-11-18T00:55:54.845Z,0
2016-11-18T00:56:55.605Z,0
2016-11-18T00:57:56.111Z,0
2016-11-18T00:58:55.058Z,0
2016-11-18T00:59:56.929Z,0
2016-11-18T01:00:45.432Z,0
2016-11-18T01:01:45.885Z,0
2016-11-18T01:02:45.427Z,0
2016-11-18T01:03:45.946Z,0
2016-11-18T01:04:45.440Z,0
2016-11-18T01:05:48.753Z,0
2016-11-18T01:06:45.466Z,0
2016-11-18T01:07:45.480Z,0
2016-11-18T01:08:45.434Z,0
2016-11-18T01:09:45.419Z,0
2016-11-18T01:10:45.446Z,0
2016-11-18T01:11:45.419Z,0
2016-11-18T01:12:46.341Z,0
2016-11-18T01:13:45.446Z,0
2016-11-18T01:14:45.457Z,0
2016-11-18T01:15:45.418Z,0
2016-11-18T01:16:45.767Z,0
2016-11-18T01:17:45.402Z,0
2016-11-18T01:18:45.765Z,0
2016-11-18T01:19:45.416Z,0
2016-11-18T01:20:45.427Z,0
2016-11-18T01:21:45.429Z,0
2016-11-18T01:22:45.450Z,0
2016-11-18T01:23:45.444Z,0
2016-11-18T01:24:45.428Z,0
2016-11-18T01:25:45.456Z,0
2016-11-18T01:26:45.477Z,0
2016-11-18T01:27:45.469Z,0
2016-11-18T01:28:45.412Z,0
2016-11-18T01:29:45.412Z,0
2016-11-18T01:30:45.504Z,0
2016-11-18T01:31:45.480Z,0
2016-11-18T01:32:45.960Z,0
2016-11-18T01:33:45.396Z,0
2016-11-18T01:34:45.453Z,0
2016-11-18T01:35:45.451Z,0
2016-11-18T01:36:45.441Z,0
2016-11-18T01:37:45.544Z,0
2016-11-18T01:38:45.508Z,0
2016-11-18T01:39:45.675Z,0
2016-11-18T01:40:45.435Z,0
2016-11-18T01:41:45.430Z,0
2016-11-18T01:42:45.463Z,0
2016-11-18T01:43:45.426Z,0
2016-11-18T01:44:45.432Z,0
2016-11-18T01:45:45.703Z,0
2016-11-18T01:46:45.417Z,0
2016-11-18T01:47:45.483Z,0
2016-11-18T01:48:45.803Z,0
2016-11-18T01:49:45.794Z,0
2016-11-18T01:50:45.486Z,0
2016-11-18T01:51:45.520Z,0
2016-11-18T01:52:45.496Z,0
2016-11-18T01:53:45.443Z,0
2016-11-18T01:54:45.489Z,0
2016-11-18T01:55:45.560Z,0
2016-11-18T01:56:45.523Z,0
2016-11-18T01:57:45.541Z,0
2016-11-18T01:58:45.486Z,0
2016-11-18T01:59:45.489Z,0
2016-11-18T02:00:45.500Z,0
2016-11-18T02:01:45.487Z,0
2016-11-18T02:02:45.683Z,0
2016-11-18T02:03:45.451Z,0
2016-11-18T02:04:45.519Z,0
2016-11-18T02:05:45.425Z,0
2016-11-18T02:06:45.456Z,0
2016-11-18T02:07:45.428Z,0
2016-11-18T02:08:45.768Z,0
2016-11-18T02:09:45.580Z,0
2016-11-18T02:10:45.603Z,0
2016-11-18T02:11:45.500Z,0
2016-11-18T02:12:45.585Z,0
2016-11-18T02:13:45.462Z,0
2016-11-18T02:14:45.456Z,0
2016-11-18T02:15:45.480Z,0
2016-11-18T02:16:45.524Z,0
2016-11-18T02:17:45.532Z,0
2016-11-18T02:18:45.525Z,0
2016-11-18T02:19:45.550Z,0
2016-11-18T02:20:45.675Z,0
2016-11-18T02:21:45.595Z,0
2016-11-18T02:22:45.654Z,0
2016-11-18T02:23:45.524Z,0
2016-11-18T02:24:45.631Z,0
2016-11-18T02:25:45.739Z,0
2016-11-18T02:26:45.543Z,0
2016-11-18T02:27:45.846Z,0
2016-11-18T02:28:45.492Z,0
2016-11-18T02:29:45.480Z,0
2016-11-18T02:30:45.582Z,0
2016-11-18T02:31:45.445Z,0
2016-11-18T02:32:45.500Z,0
2016-11-18T02:33:45.528Z,0
2016-11-18T02:34:45.514Z,0
2016-11-18T02:35:45.509Z,0
2016-11-18T02:36:45.500Z,0
2016-11-18T02:37:45.569Z,0
2016-11-18T02:38:45.526Z,0
2016-11-18T02:39:45.865Z,0
2016-11-18T02:40:45.473Z,0
2016-11-18T02:41:45.611Z,0
2016-11-18T02:42:45.517Z,0
2016-11-18T02:43:45.517Z,0
2016-11-18T02:44:45.504Z,0
2016-11-18T02:45:45.630Z,0
2016-11-18T02:46:45.499Z,0
2016-11-18T02:47:45.812Z,0
2016-11-18T02:48:45.857Z,0
2016-11-18T02:49:45.501Z,0
2016-11-18T02:50:45.691Z,0
2016-11-18T02:51:45.639Z,0
2016-11-18T02:52:45.557Z,0
2016-11-18T02:53:45.505Z,0
2016-11-18T02:54:45.540Z,0
2016-11-18T02:55:45.574Z,0
2016-11-18T02:56:45.499Z,0
2016-11-18T02:57:45.751Z,0
2016-11-18T02:58:45.578Z,0
2016-11-18T02:59:45.554Z,0
2016-11-18T03:00:45.508Z,0
2016-11-18T03:01:45.496Z,0
2016-11-18T03:02:45.491Z,0
2016-11-18T03:03:45.578Z,0
2016-11-18T03:04:45.547Z,0
2016-11-18T03:05:45.494Z,0
2016-11-18T03:06:45.475Z,0
2016-11-18T03:07:45.502Z,0
2016-11-18T03:08:45.494Z,0
2016-11-18T03:09:45.632Z,0
2016-11-18T03:10:45.457Z,0
2016-11-18T03:11:45.713Z,0
2016-11-18T03:12:46.012Z,0
2016-11-18T03:13:45.486Z,0
2016-11-18T03:14:45.492Z,0
2016-11-18T03:15:45.555Z,0
2016-11-18T03:16:45.484Z,0
2016-11-18T03:17:45.497Z,0
2016-11-18T03:18:45.509Z,0
2016-11-18T03:19:45.491Z,0
2016-11-18T03:20:45.511Z,0
2016-11-18T03:21:46.109Z,0
2016-11-18T03:22:45.513Z,0
2016-11-18T03:23:45.535Z,0
2016-11-18T03:24:45.551Z,0
2016-11-18T03:25:45.505Z,0
2016-11-18T03:26:45.545Z,0
2016-11-18T03:27:45.718Z,0
2016-11-18T03:28:45.505Z,0
2016-11-18T03:29:45.456Z,0
2016-11-18T03:30:45.491Z,0
2016-11-18T03:31:45.511Z,0
2016-11-18T03:32:45.568Z,0
2016-11-18T03:33:45.724Z,0
2016-11-18T03:34:45.480Z,0
2016-11-18T03:35:45.535Z,0
2016-11-18T03:36:45.711Z,0
2016-11-18T03:37:45.579Z,0
2016-11-18T03:38:45.514Z,0
2016-11-18T03:39:45.541Z,0
2016-11-18T03:40:45.554Z,0
2016-11-18T03:41:45.505Z,0
2016-11-18T03:42:46.169Z,0
2016-11-18T03:43:45.523Z,0
2016-11-18T03:44:45.588Z,0
2016-11-18T03:45:45.946Z,0
2016-11-18T03:46:45.880Z,0
2016-11-18T03:47:45.513Z,0
2016-11-18T03:48:45.806Z,0
2016-11-18T03:49:45.505Z,0
2016-11-18T03:50:45.495Z,0
2016-11-18T03:51:45.695Z,0
2016-11-18T03:52:45.573Z,0
2016-11-18T03:53:45.528Z,0
2016-11-18T03:54:45.600Z,0
2016-11-18T03:55:45.523Z,0
2016-11-18T03:56:45.575Z,0
2016-11-18T03:57:45.505Z,0
2016-11-18T03:58:45.533Z,0
2016-11-18T03:59:45.509Z,0
2016-11-18T04:00:45.562Z,0
2016-11-18T04:01:45.523Z,0
2016-11-18T04:02:45.515Z,0
2016-11-18T04:03:45.742Z,0
2016-11-18T04:04:45.528Z,0
2016-11-18T04:05:45.520Z,0
2016-11-18T04:06:45.569Z,0
2016-11-18T04:07:45.559Z,0
2016-11-18T04:08:45.528Z,0
2016-11-18T04:09:45.536Z,0
2016-11-18T04:10:45.526Z,0
2016-11-18T04:11:45.533Z,0
2016-11-18T04:12:45.967Z,0
2016-11-18T04:13:45.546Z,0
2016-11-18T04:14:45.571Z,0
2016-11-18T04:15:45.562Z,0
2016-11-18T04:16:45.523Z,0
2016-11-18T04:17:45.529Z,0
2016-11-18T04:18:46.342Z,0
2016-11-18T04:19:45.556Z,0
2016-11-18T04:20:45.527Z,0
2016-11-18T04:21:45.951Z,0
2016-11-18T04:22:45.579Z,0
2016-11-18T04:23:45.588Z,0
2016-11-18T04:24:45.636Z,0
2016-11-18T04:25:45.556Z,0
2016-11-18T04:26:45.575Z,0
2016-11-18T04:27:46.023Z,0
2016-11-18T04:28:45.636Z,0
2016-11-18T04:29:45.584Z,0
2016-11-18T04:30:45.651Z,0
2016-11-18T04:31:45.574Z,0
2016-11-18T04:32:45.550Z,0
2016-11-18T04:33:45.805Z,0
2016-11-18T04:34:45.565Z,0
2016-11-18T04:35:45.535Z,0
2016-11-18T04:36:45.536Z,0
2016-11-18T04:37:45.549Z,0
2016-11-18T04:38:45.557Z,0
2016-11-18T04:39:45.878Z,0
2016-11-18T04:40:45.555Z,0
2016-11-18T04:41:45.537Z,0
2016-11-18T04:42:45.552Z,0
2016-11-18T04:43:45.558Z,0
2016-11-18T04:44:45.591Z,0
2016-11-18T04:45:46.032Z,0
2016-11-18T04:46:45.530Z,0
2016-11-18T04:47:45.606Z,0
2016-11-18T04:48:45.639Z,0
2016-11-18T04:49:45.613Z,0
2016-11-18T04:50:45.626Z,0
2016-11-18T04:51:45.821Z,0
2016-11-18T04:52:45.553Z,0
2016-11-18T04:53:45.579Z,0
2016-11-18T04:54:45.579Z,0
2016-11-18T04:55:45.616Z,0
2016-11-18T04:56:45.595Z,0
2016-11-18T04:57:45.997Z,0
2016-11-18T04:58:45.597Z,0
2016-11-18T04:59:45.633Z,0
2016-11-18T05:00:45.829Z,0
2016-11-18T05:01:45.630Z,0
2016-11-18T05:02:45.604Z,0
2016-11-18T05:03:45.661Z,0
2016-11-18T05:04:45.603Z,0
2016-11-18T05:05:45.588Z,0
2016-11-18T05:06:45.895Z,0
2016-11-18T05:07:45.584Z,0
2016-11-18T05:08:45.610Z,0
2016-11-18T05:09:45.634Z,0
2016-11-18T05:10:45.654Z,0
2016-11-18T05:11:45.604Z,0
2016-11-18T05:12:45.623Z,0
2016-11-18T05:13:45.558Z,0
2016-11-18T05:14:45.627Z,0
2016-11-18T05:15:46.038Z,0
2016-11-18T05:16:45.700Z,0
2016-11-18T05:17:45.624Z,0
2016-11-18T05:18:45.597Z,0
2016-11-18T05:19:45.623Z,0
2016-11-18T05:20:45.646Z,0
2016-11-18T05:21:45.812Z,0
2016-11-18T05:22:45.614Z,0
2016-11-18T05:23:45.608Z,0
2016-11-18T05:24:45.866Z,0
2016-11-18T05:25:45.634Z,0
2016-11-18T05:26:45.592Z,0
2016-11-18T05:27:45.888Z,0
2016-11-18T05:28:45.651Z,0
2016-11-18T05:29:45.629Z,0
2016-11-18T05:30:46.221Z,0
2016-11-18T05:31:45.612Z,0
2016-11-18T05:32:45.639Z,0
2016-11-18T05:33:46.255Z,0
2016-11-18T05:34:45.642Z,0
2016-11-18T05:35:45.619Z,0
2016-11-18T05:36:45.598Z,0
2016-11-18T05:37:45.594Z,0
2016-11-18T05:38:45.646Z,0
2016-11-18T05:39:45.853Z,0
2016-11-18T05:40:45.640Z,0
2016-11-18T05:41:45.705Z,0
2016-11-18T05:42:45.600Z,0
2016-11-18T05:43:45.644Z,0
2016-11-18T05:44:45.653Z,0
2016-11-18T05:45:45.640Z,0
2016-11-18T05:46:45.647Z,0
2016-11-18T05:47:45.626Z,0
2016-11-18T05:48:45.677Z,0
2016-11-18T05:49:45.620Z,0
2016-11-18T05:50:45.642Z,0
2016-11-18T05:51:45.714Z,0
2016-11-18T05:52:45.620Z,0
2016-11-18T05:53:45.661Z,0
2016-11-18T05:54:46.030Z,0
2016-11-18T05:55:45.644Z,0
2016-11-18T05:56:45.655Z,0
2016-11-18T05:57:45.610Z,0
2016-11-18T05:58:45.698Z,0
2016-11-18T05:59:45.679Z,0
2016-11-18T06:00:45.953Z,0
2016-11-18T06:01:45.682Z,0
2016-11-18T06:02:45.634Z,0
2016-11-18T06:03:46.158Z,0
2016-11-18T06:04:45.647Z,0
2016-11-18T06:05:45.626Z,0
2016-11-18T06:06:45.647Z,0
2016-11-18T06:07:45.655Z,0
2016-11-18T06:08:46.290Z,0
2016-11-18T06:09:45.703Z,0
2016-11-18T06:10:45.620Z,0
2016-11-18T06:11:45.641Z,0
2016-11-18T06:12:45.633Z,0
2016-11-18T06:13:45.653Z,0
2016-11-18T06:14:45.634Z,0
2016-11-18T06:15:45.916Z,0
2016-11-18T06:16:45.647Z,0
2016-11-18T06:17:45.692Z,0
2016-11-18T06:18:45.638Z,0
2016-11-18T06:19:45.646Z,0
2016-11-18T06:20:45.675Z,0
2016-11-18T06:21:46.006Z,0
2016-11-18T06:22:45.634Z,0
2016-11-18T06:23:45.676Z,0
2016-11-18T06:24:45.681Z,0
2016-11-18T06:25:45.706Z,0
2016-11-18T06:26:45.669Z,0
2016-11-18T06:27:45.955Z,0
2016-11-18T06:28:45.653Z,0
2016-11-18T06:29:45.659Z,4
2016-11-18T06:30:45.934Z,4
2016-11-18T06:31:45.646Z,4
2016-11-18T06:32:45.654Z,0
2016-11-18T06:33:45.672Z,4
2016-11-18T06:34:45.682Z,8
2016-11-18T06:35:45.645Z,8
2016-11-18T06:36:46.261Z,16
2016-11-18T06:37:45.736Z,20
2016-11-18T06:38:45.734Z,24
2016-11-18T06:39:46.229Z,28
2016-11-18T06:40:45.670Z,36
2016-11-18T06:41:45.715Z,40
2016-11-18T06:42:45.667Z,40
2016-11-18T06:43:45.693Z,40
2016-11-18T06:44:45.686Z,40
2016-11-18T06:45:45.653Z,44
2016-11-18T06:46:45.693Z,44
2016-11-18T06:47:45.737Z,44
2016-11-18T06:48:45.629Z,48
2016-11-18T06:49:45.707Z,52
2016-11-18T06:50:45.747Z,56
2016-11-18T06:51:46.391Z,60
2016-11-18T06:52:45.698Z,72
2016-11-18T06:53:45.674Z,76
2016-11-18T06:54:45.653Z,84
2016-11-18T06:55:45.702Z,92
2016-11-18T06:56:45.714Z,112
2016-11-18T06:57:45.671Z,140
2016-11-18T06:58:45.649Z,172
2016-11-18T06:59:45.626Z,196
2016-11-18T07:00:45.619Z,224
2016-11-18T07:01:45.670Z,248
2016-11-18T07:02:45.751Z,268
2016-11-18T07:03:45.726Z,296
2016-11-18T07:04:45.687Z,336
2016-11-18T07:05:45.640Z,364
2016-11-18T07:06:45.732Z,376
2016-11-18T07:07:45.915Z,404
2016-11-18T07:08:45.718Z,424
2016-11-18T07:09:45.725Z,444
2016-11-18T07:10:45.735Z,460
2016-11-18T07:11:45.933Z,480
2016-11-18T07:12:45.923Z,492
2016-11-18T07:13:46.049Z,508
2016-11-18T07:14:46.390Z,524
2016-11-18T07:15:46.457Z,536
2016-11-18T07:16:46.185Z,552
2016-11-18T07:17:46.362Z,564
2016-11-18T07:18:45.860Z,584
2016-11-18T07:19:46.044Z,604
2016-11-18T07:20:45.933Z,624
2016-11-18T07:21:46.769Z,644
2016-11-18T07:22:46.061Z,664
2016-11-18T07:23:45.934Z,692
2016-11-18T07:24:45.805Z,728
2016-11-18T07:25:45.983Z,744
2016-11-18T07:26:46.072Z,760
2016-11-18T07:27:46.604Z,792
2016-11-18T07:28:45.894Z,832
2016-11-18T07:29:45.703Z,856
2016-11-18T07:30:46.524Z,892
2016-11-18T07:31:45.675Z,932
2016-11-18T07:32:45.704Z,980
2016-11-18T07:33:45.664Z,1032
2016-11-18T07:34:45.763Z,1088
2016-11-18T07:35:45.703Z,1176
2016-11-18T07:36:45.747Z,1288
2016-11-18T07:37:45.718Z,1292
2016-11-18T07:38:46.195Z,1292
2016-11-18T07:39:46.541Z,1280
2016-11-18T07:40:46.526Z,1336
2016-11-18T07:41:46.433Z,1376
2016-11-18T07:42:45.859Z,1384
2016-11-18T07:43:46.359Z,1388
2016-11-18T07:44:45.749Z,1244
2016-11-18T07:45:45.822Z,1144
2016-11-18T07:46:45.742Z,1120
2016-11-18T07:47:45.715Z,1132
2016-11-18T07:48:45.725Z,1136
2016-11-18T07:49:45.787Z,1124
2016-11-18T07:50:45.699Z,1100
2016-11-18T07:51:45.693Z,1048
2016-11-18T07:52:45.718Z,1020
2016-11-18T07:53:45.725Z,996
2016-11-18T07:54:45.752Z,992
2016-11-18T07:55:45.721Z,1004
2016-11-18T07:56:45.712Z,1020
2016-11-18T07:57:45.709Z,1096
2016-11-18T07:58:45.742Z,1204
2016-11-18T07:59:45.715Z,1276
2016-11-18T08:00:45.722Z,1260
2016-11-18T08:01:46.960Z,1292
2016-11-18T08:02:45.731Z,1396
2016-11-18T08:03:45.729Z,1472
2016-11-18T08:04:45.805Z,1532
2016-11-18T08:05:45.724Z,1576
2016-11-18T08:06:45.782Z,1608
2016-11-18T08:07:45.712Z,1600
2016-11-18T08:08:45.808Z,1668
2016-11-18T08:09:45.774Z,2060
2016-11-18T08:10:45.907Z,2040
2016-11-18T08:11:46.915Z,1896
2016-11-18T08:12:45.776Z,1776
2016-11-18T08:13:45.742Z,1720
2016-11-18T08:14:46.259Z,1660
2016-11-18T08:15:45.719Z,1620
2016-11-18T08:16:45.755Z,1604
2016-11-18T08:17:46.398Z,1628
2016-11-18T08:18:45.747Z,1732
2016-11-18T08:19:45.792Z,1936
2016-11-18T08:20:45.723Z,2060
2016-11-18T08:21:45.762Z,2080
2016-11-18T08:22:47.859Z,2092
2016-11-18T08:23:46.122Z,2088
2016-11-18T08:24:45.761Z,2084
2016-11-18T08:25:46.000Z,2060
2016-11-18T08:26:45.731Z,2012
2016-11-18T08:27:45.783Z,1980
2016-11-18T08:28:47.179Z,1984
2016-11-18T08:29:45.949Z,1956
2016-11-18T08:30:45.831Z,2044
2016-11-18T08:31:45.773Z,2036
2016-11-18T08:32:45.868Z,2180
2016-11-18T08:33:46.011Z,2184
2016-11-18T08:34:46.020Z,2296
2016-11-18T08:35:45.810Z,2400
2016-11-18T08:36:45.723Z,2572
2016-11-18T08:37:45.834Z,2656
2016-11-18T08:38:45.730Z,2916
2016-11-18T08:39:45.973Z,2988
2016-11-18T08:40:45.858Z,3020
2016-11-18T08:41:45.783Z,3104
2016-11-18T08:42:45.892Z,3520
2016-11-18T08:43:45.781Z,3520
2016-11-18T08:44:45.994Z,3612
2016-11-18T08:45:45.918Z,3528
2016-11-18T08:46:45.749Z,3704
2016-11-18T08:47:45.767Z,3744
2016-11-18T08:48:45.729Z,3896
2016-11-18T08:49:45.739Z,4632
2016-11-18T08:50:45.789Z,4632
2016-11-18T08:51:45.983Z,4352
2016-11-18T08:52:45.739Z,4440
2016-11-18T08:53:45.727Z,4268
2016-11-18T08:54:45.748Z,4284
2016-11-18T08:55:46.186Z,3992
2016-11-18T08:56:45.819Z,3976
2016-11-18T08:57:45.774Z,3704
2016-11-18T08:58:45.812Z,3712
2016-11-18T08:59:46.018Z,3804
2016-11-18T09:00:45.736Z,3528
2016-11-18T09:01:47.209Z,3340
2016-11-18T09:02:47.089Z,2944
2016-11-18T09:03:46.849Z,2588
2016-11-18T09:04:46.225Z,3160
2016-11-18T09:05:45.828Z,3852
2016-11-18T09:06:47.272Z,4276
2016-11-18T09:07:45.931Z,4808
2016-11-18T09:08:46.481Z,5264
2016-11-18T09:09:46.025Z,5280
2016-11-18T09:10:45.769Z,5472
2016-11-18T09:11:46.031Z,5524
2016-11-18T09:12:47.378Z,5688
2016-11-18T09:13:45.948Z,5552
2016-11-18T09:14:45.995Z,5344
2016-11-18T09:15:45.963Z,5188
2016-11-18T09:16:45.925Z,5020
2016-11-18T09:17:45.971Z,4604
2016-11-18T09:18:45.764Z,4316
2016-11-18T09:19:46.261Z,3912
2016-11-18T09:20:46.315Z,3596
2016-11-18T09:21:45.905Z,3384
2016-11-18T09:22:45.768Z,3752
2016-11-18T09:23:45.778Z,4028
2016-11-18T09:24:45.817Z,3784
2016-11-18T09:25:45.790Z,3720
2016-11-18T09:26:45.813Z,3592
2016-11-18T09:27:45.771Z,3440
2016-11-18T09:28:45.750Z,3068
2016-11-18T09:29:45.880Z,2816
2016-11-18T09:30:45.769Z,2712
2016-11-18T09:31:45.814Z,2592
2016-11-18T09:32:45.793Z,2632
2016-11-18T09:33:46.073Z,2624
2016-11-18T09:34:45.772Z,2548
2016-11-18T09:35:45.798Z,2660
2016-11-18T09:36:45.811Z,2892
2016-11-18T09:37:45.779Z,3616
2016-11-18T09:38:45.848Z,4800
2016-11-18T09:39:45.830Z,5908
2016-11-18T09:40:45.858Z,6492
2016-11-18T09:41:45.813Z,6932
2016-11-18T09:42:45.812Z,7032
2016-11-18T09:43:45.818Z,7916
2016-11-18T09:44:45.782Z,8792
2016-11-18T09:45:45.927Z,8896
2016-11-18T09:46:45.806Z,7872
2016-11-18T09:47:45.783Z,7116
2016-11-18T09:48:45.876Z,7688
2016-11-18T09:49:45.823Z,7776
2016-11-18T09:50:45.935Z,6860
2016-11-18T09:51:45.847Z,7940
2016-11-18T09:52:45.825Z,7776
2016-11-18T09:53:45.781Z,5924
2016-11-18T09:54:45.809Z,5612
2016-11-18T09:55:45.832Z,5880
2016-11-18T09:56:48.328Z,5420
2016-11-18T09:57:46.168Z,5084
2016-11-18T09:58:46.478Z,5044
2016-11-18T09:59:46.445Z,5684
2016-11-18T10:00:46.106Z,5368
2016-11-18T10:01:45.817Z,5104
2016-11-18T10:02:46.570Z,5252
2016-11-18T10:03:45.816Z,5672
2016-11-18T10:04:46.452Z,5640
2016-11-18T10:05:45.790Z,5844
2016-11-18T10:06:45.793Z,5444
2016-11-18T10:07:45.847Z,5096
2016-11-18T10:08:45.870Z,5424
2016-11-18T10:09:46.359Z,6108
2016-11-18T10:10:45.846Z,6300
2016-11-18T10:11:45.798Z,6432
2016-11-18T10:12:45.849Z,6252
2016-11-18T10:13:45.875Z,6440
2016-11-18T10:14:46.750Z,6312
2016-11-18T10:15:45.881Z,6060
2016-11-18T10:16:45.796Z,5856
2016-11-18T10:17:46.019Z,5824
2016-11-18T10:18:45.805Z,6376
2016-11-18T10:19:45.825Z,6576
2016-11-18T10:20:45.884Z,7004
2016-11-18T10:21:45.811Z,7212
2016-11-18T10:22:45.898Z,5736
2016-11-18T10:23:46.590Z,4172
2016-11-18T10:24:45.862Z,3876
2016-11-18T10:25:45.852Z,3800
2016-11-18T10:26:45.897Z,3928
2016-11-18T10:27:45.860Z,4156
2016-11-18T10:28:45.805Z,3748
2016-11-18T10:29:45.836Z,4412
2016-11-18T10:30:45.885Z,5384
2016-11-18T10:31:45.799Z,5428
2016-11-18T10:32:45.820Z,5628
2016-11-18T10:33:45.798Z,5536
2016-11-18T10:34:45.811Z,5052
2016-11-18T10:35:45.865Z,4272
2016-11-18T10:36:45.820Z,3548
2016-11-18T10:37:45.887Z,3376
2016-11-18T10:38:45.845Z,3416
2016-11-18T10:39:45.898Z,3620
2016-11-18T10:40:45.810Z,3712
2016-11-18T10:41:45.990Z,3784
2016-11-18T10:42:45.843Z,4008
2016-11-18T10:43:45.852Z,4080
2016-11-18T10:44:45.817Z,4208
2016-11-18T10:45:45.865Z,4320
2016-11-18T10:46:45.871Z,4544
2016-11-18T10:47:45.916Z,5108
2016-11-18T10:48:45.835Z,5732
2016-11-18T10:49:45.826Z,6096
2016-11-18T10:50:45.852Z,6176
2016-11-18T10:51:45.907Z,6476
2016-11-18T10:52:45.807Z,6444
2016-11-18T10:53:45.881Z,6852
2016-11-18T10:54:45.856Z,7216
2016-11-18T10:55:45.865Z,7232
2016-11-18T10:56:45.882Z,7352
2016-11-18T10:57:45.847Z,8096
2016-11-18T10:58:45.814Z,7912
2016-11-18T10:59:45.905Z,7388
2016-11-18T11:00:45.898Z,7308
2016-11-18T11:01:45.907Z,6852
2016-11-18T11:02:45.855Z,6164
2016-11-18T11:03:45.851Z,5936
2016-11-18T11:04:45.957Z,6292
2016-11-18T11:05:45.924Z,6460
2016-11-18T11:06:45.932Z,6464
2016-11-18T11:07:45.960Z,6504
2016-11-18T11:08:45.926Z,6380
2016-11-18T11:09:46.009Z,5656
2016-11-18T11:10:46.306Z,5196
2016-11-18T11:11:45.902Z,4828
2016-11-18T11:12:45.914Z,4804
2016-11-18T11:13:45.923Z,5184
2016-11-18T11:14:45.885Z,5340
2016-11-18T11:15:45.859Z,5152
2016-11-18T11:16:45.862Z,5068
2016-11-18T11:17:45.958Z,5416
2016-11-18T11:18:45.853Z,5096
2016-11-18T11:19:45.899Z,5548
2016-11-18T11:20:45.905Z,5848
2016-11-18T11:21:45.869Z,5936
2016-11-18T11:22:45.928Z,5864
2016-11-18T11:23:46.009Z,6260
2016-11-18T11:24:45.895Z,6792
2016-11-18T11:25:46.050Z,7008
2016-11-18T11:26:45.911Z,6888
2016-11-18T11:27:45.931Z,6832
2016-11-18T11:28:45.905Z,6208
2016-11-18T11:29:46.000Z,6076
2016-11-18T11:30:45.956Z,6404
2016-11-18T11:31:45.911Z,6024
2016-11-18T11:32:45.924Z,5980
2016-11-18T11:33:45.946Z,6072
2016-11-18T11:34:46.017Z,6424
2016-11-18T11:35:45.953Z,6600
2016-11-18T11:36:45.967Z,7008
2016-11-18T11:37:45.953Z,8512
2016-11-18T11:38:45.950Z,9172
2016-11-18T11:39:45.956Z,8548
2016-11-18T11:40:46.001Z,6676
2016-11-18T11:41:45.987Z,5516
2016-11-18T11:42:46.534Z,5212
2016-11-18T11:43:46.019Z,6536
2016-11-18T11:44:46.034Z,7988
2016-11-18T11:45:46.978Z,6908
2016-11-18T11:46:45.986Z,5920
2016-11-18T11:47:45.969Z,5488
2016-11-18T11:48:46.033Z,5024
2016-11-18T11:49:46.025Z,4856
2016-11-18T11:50:46.018Z,4396
2016-11-18T11:51:46.613Z,4076
2016-11-18T11:52:46.082Z,3464
2016-11-18T11:53:45.900Z,3136
2016-11-18T11:54:46.094Z,3080
2016-11-18T11:55:47.171Z,3676
2016-11-18T11:56:46.060Z,3424
2016-11-18T11:57:46.096Z,3276
2016-11-18T11:58:46.063Z,3176
2016-11-18T11:59:46.021Z,3536
2016-11-18T12:00:46.221Z,3996
2016-11-18T12:01:46.743Z,3928
2016-11-18T12:02:46.119Z,3760
2016-11-18T12:03:46.039Z,4356
2016-11-18T12:04:45.997Z,3700
2016-11-18T12:05:45.959Z,3176
2016-11-18T12:06:46.010Z,2864
2016-11-18T12:07:46.048Z,2608
2016-11-18T12:08:46.097Z,2832
2016-11-18T12:09:46.076Z,2864
2016-11-18T12:10:46.547Z,2548
2016-11-18T12:11:45.943Z,2816
2016-11-18T12:12:46.489Z,2748
2016-11-18T12:13:46.432Z,2620
2016-11-18T12:14:46.010Z,2720
2016-11-18T12:15:45.998Z,2696
2016-11-18T12:16:46.022Z,2776
2016-11-18T12:17:46.058Z,2804
2016-11-18T12:18:46.035Z,2876
2016-11-18T12:19:46.003Z,3044
2016-11-18T12:20:46.084Z,2924
2016-11-18T12:21:46.397Z,2928
2016-11-18T12:22:46.035Z,2900
2016-11-18T12:23:46.832Z,3804
2016-11-18T12:24:46.094Z,3756
2016-11-18T12:25:45.912Z,3220
2016-11-18T12:26:45.971Z,4008
2016-11-18T12:27:45.930Z,3304
2016-11-18T12:28:45.956Z,2864
2016-11-18T12:29:46.274Z,2576
2016-11-18T12:30:46.000Z,3308
2016-11-18T12:31:45.929Z,4136
2016-11-18T12:32:46.012Z,2832
2016-11-18T12:33:46.091Z,3304
2016-11-18T12:34:45.905Z,3024
2016-11-18T12:35:46.060Z,2608
2016-11-18T12:36:45.916Z,2532
2016-11-18T12:37:45.909Z,2676
2016-11-18T12:38:45.888Z,2992
2016-11-18T12:39:45.890Z,3060
2016-11-18T12:40:45.897Z,3224
2016-11-18T12:41:46.092Z,3068
2016-11-18T12:42:45.911Z,3048
2016-11-18T12:43:45.906Z,3216
2016-11-18T12:44:45.922Z,3140
2016-11-18T12:45:45.913Z,2900
2016-11-18T12:46:45.909Z,2992
2016-11-18T12:47:45.963Z,2992
2016-11-18T12:48:45.896Z,2968
2016-11-18T12:49:45.918Z,2936
2016-11-18T12:50:45.923Z,2904
2016-11-18T12:51:45.944Z,2928
2016-11-18T12:52:45.970Z,2884
2016-11-18T12:53:46.009Z,2876
2016-11-18T12:54:46.050Z,2840
2016-11-18T12:55:46.000Z,2828
2016-11-18T12:56:45.953Z,2828
2016-11-18T12:57:45.947Z,2840
2016-11-18T12:58:46.084Z,2916
2016-11-18T12:59:45.910Z,3120
2016-11-18T13:00:45.928Z,3388
2016-11-18T13:01:46.017Z,3520
2016-11-18T13:02:45.994Z,3468
2016-11-18T13:03:45.966Z,3208
2016-11-18T13:04:46.033Z,3120
2016-11-18T13:05:45.924Z,3124
2016-11-18T13:06:45.946Z,3044
2016-11-18T13:07:46.050Z,2796
2016-11-18T13:08:46.132Z,2632
2016-11-18T13:09:45.950Z,2580
2016-11-18T13:10:46.008Z,2532
2016-11-18T13:11:45.933Z,2568
2016-11-18T13:12:45.978Z,3072
2016-11-18T13:13:45.970Z,3112
2016-11-18T13:14:45.969Z,3796
2016-11-18T13:15:45.930Z,3420
2016-11-18T13:16:45.946Z,2868
2016-11-18T13:17:45.969Z,3000
2016-11-18T13:18:46.085Z,3324
2016-11-18T13:19:46.191Z,4124
2016-11-18T13:20:45.943Z,3384
2016-11-18T13:21:46.009Z,2904
2016-11-18T13:22:46.571Z,2788
2016-11-18T13:23:47.153Z,2884
2016-11-18T13:24:46.030Z,2836
2016-11-18T13:25:48.392Z,3264
2016-11-18T13:26:47.757Z,3200
2016-11-18T13:27:46.049Z,2900
2016-11-18T13:28:45.944Z,2668
2016-11-18T13:29:46.037Z,2668
2016-11-18T13:30:45.980Z,2564
2016-11-18T13:31:45.971Z,2664
2016-11-18T13:32:45.941Z,2448
2016-11-18T13:33:46.241Z,2392
2016-11-18T13:34:46.047Z,2344
2016-11-18T13:35:46.324Z,2308
2016-11-18T13:36:46.073Z,2308
2016-11-18T13:37:45.996Z,2308
2016-11-18T13:38:46.230Z,2336
2016-11-18T13:39:46.277Z,2356
2016-11-18T13:40:46.288Z,2376
2016-11-18T13:41:46.415Z,2384
2016-11-18T13:42:46.029Z,2412
2016-11-18T13:43:45.978Z,2412
2016-11-18T13:44:46.113Z,2296
2016-11-18T13:45:46.882Z,2440
2016-11-18T13:46:46.069Z,2144
2016-11-18T13:47:46.029Z,2068
2016-11-18T13:48:46.506Z,2020
2016-11-18T13:49:46.317Z,1984
2016-11-18T13:50:46.507Z,1988
2016-11-18T13:51:46.383Z,2044
2016-11-18T13:52:45.942Z,1932
2016-11-18T13:53:46.187Z,1992
2016-11-18T13:54:45.985Z,1960
2016-11-18T13:55:46.131Z,1960
2016-11-18T13:56:45.993Z,1924
2016-11-18T13:57:46.039Z,1800
2016-11-18T13:58:46.029Z,1712
2016-11-18T13:59:46.143Z,1716
2016-11-18T14:00:46.227Z,1700